sensor_id;sensor_type;location;lat;lon;timestamp;P1;durP1;ratioP1;P2;durP2;ratioP2
56631;SDS011;42503;39.928;-75.152;2023-09-12T00:07:24;13.02;;;9.43;;
56631;SDS011;42503;39.928;-75.152;2023-09-12T00:17:25;24.40;;;13.50;;
56631;SDS011;42503;39.928;-75.152;2023-09-12T00:27:29;24.98;;;15.75;;
56631;SDS011;42503;39.928;-75.152;2023-09-12T00:37:30;33.20;;;17.23;;
56631;SDS011;42503;39.928;-75.152;2023-09-12T00:47:32;35.40;;;17.45;;
56631;SDS011;42503;39.928;-75.152;2023-09-12T00:57:33;34.45;;;17.50;;
56631;SDS011;42503;39.928;-75.152;2023-09-12T01:07:39;26.48;;;14.60;;
56631;SDS011;42503;39.928;-75.152;2023-09-12T01:17:43;25.75;;;13.25;;
56631;SDS011;42503;39.928;-75.152;2023-09-12T01:27:46;23.15;;;12.70;;
56631;SDS011;42503;39.928;-75.152;2023-09-12T01:37:49;22.63;;;12.30;;
56631;SDS011;42503;39.928;-75.152;2023-09-12T01:47:51;27.40;;;12.18;;
56631;SDS011;42503;39.928;-75.152;2023-09-12T01:57:52;24.52;;;11.73;;
56631;SDS011;42503;39.928;-75.152;2023-09-12T02:07:54;22.77;;;11.27;;
56631;SDS011;42503;39.928;-75.152;2023-09-12T02:17:56;62.22;;;45.03;;
56631;SDS011;42503;39.928;-75.152;2023-09-12T02:27:57;102.60;;;75.63;;
56631;SDS011;42503;39.928;-75.152;2023-09-12T02:37:59;144.85;;;111.40;;
56631;SDS011;42503;39.928;-75.152;2023-09-12T02:48:00;164.32;;;129.85;;
56631;SDS011;42503;39.928;-75.152;2023-09-12T02:58:02;151.40;;;121.45;;
56631;SDS011;42503;39.928;-75.152;2023-09-12T03:08:03;133.55;;;103.90;;
56631;SDS011;42503;39.928;-75.152;2023-09-12T03:18:07;114.55;;;89.65;;
56631;SDS011;42503;39.928;-75.152;2023-09-12T03:28:10;95.37;;;75.83;;
56631;SDS011;42503;39.928;-75.152;2023-09-12T03:38:12;84.70;;;65.70;;
56631;SDS011;42503;39.928;-75.152;2023-09-12T03:48:13;70.82;;;55.88;;
56631;SDS011;42503;39.928;-75.152;2023-09-12T03:58:17;63.88;;;49.45;;
56631;SDS011;42503;39.928;-75.152;2023-09-12T04:08:19;55.28;;;43.13;;
56631;SDS011;42503;39.928;-75.152;2023-09-12T04:18:20;51.58;;;40.55;;
56631;SDS011;42503;39.928;-75.152;2023-09-12T04:28:21;48.13;;;37.65;;
56631;SDS011;42503;39.928;-75.152;2023-09-12T04:38:23;38.95;;;32.55;;
56631;SDS011;42503;39.928;-75.152;2023-09-12T04:48:25;35.17;;;29.77;;
56631;SDS011;42503;39.928;-75.152;2023-09-12T04:58:26;34.60;;;28.20;;
56631;SDS011;42503;39.928;-75.152;2023-09-12T05:08:27;30.90;;;24.65;;
56631;SDS011;42503;39.928;-75.152;2023-09-12T05:18:29;30.83;;;23.83;;
56631;SDS011;42503;39.928;-75.152;2023-09-12T05:28:31;30.88;;;23.25;;
56631;SDS011;42503;39.928;-75.152;2023-09-12T05:38:32;25.02;;;20.98;;
56631;SDS011;42503;39.928;-75.152;2023-09-12T05:48:33;20.88;;;18.33;;
56631;SDS011;42503;39.928;-75.152;2023-09-12T05:58:35;19.90;;;17.48;;
56631;SDS011;42503;39.928;-75.152;2023-09-12T06:08:36;19.83;;;17.65;;
56631;SDS011;42503;39.928;-75.152;2023-09-12T06:18:38;19.02;;;16.27;;
56631;SDS011;42503;39.928;-75.152;2023-09-12T06:28:39;17.50;;;15.38;;
56631;SDS011;42503;39.928;-75.152;2023-09-12T06:38:41;17.40;;;15.02;;
56631;SDS011;42503;39.928;-75.152;2023-09-12T06:48:42;16.73;;;14.45;;
56631;SDS011;42503;39.928;-75.152;2023-09-12T06:58:43;16.92;;;13.30;;
56631;SDS011;42503;39.928;-75.152;2023-09-12T07:08:45;15.25;;;13.48;;
56631;SDS011;42503;39.928;-75.152;2023-09-12T07:18:47;13.88;;;12.38;;
56631;SDS011;42503;39.928;-75.152;2023-09-12T07:28:50;14.00;;;11.85;;
56631;SDS011;42503;39.928;-75.152;2023-09-12T07:38:51;12.98;;;11.18;;
56631;SDS011;42503;39.928;-75.152;2023-09-12T07:48:53;12.68;;;10.57;;
56631;SDS011;42503;39.928;-75.152;2023-09-12T07:58:57;11.38;;;9.88;;
56631;SDS011;42503;39.928;-75.152;2023-09-12T08:09:02;11.27;;;9.75;;
56631;SDS011;42503;39.928;-75.152;2023-09-12T08:19:06;11.23;;;9.73;;
56631;SDS011;42503;39.928;-75.152;2023-09-12T08:29:07;10.07;;;8.88;;
56631;SDS011;42503;39.928;-75.152;2023-09-12T08:39:13;9.27;;;8.32;;
56631;SDS011;42503;39.928;-75.152;2023-09-12T08:49:17;9.07;;;8.18;;
56631;SDS011;42503;39.928;-75.152;2023-09-12T08:59:18;8.65;;;7.68;;
56631;SDS011;42503;39.928;-75.152;2023-09-12T09:09:21;8.23;;;7.20;;
56631;SDS011;42503;39.928;-75.152;2023-09-12T09:19:23;8.13;;;7.28;;
56631;SDS011;42503;39.928;-75.152;2023-09-12T09:29:46;7.22;;;6.45;;
56631;SDS011;42503;39.928;-75.152;2023-09-12T09:39:48;6.72;;;6.03;;
56631;SDS011;42503;39.928;-75.152;2023-09-12T09:49:52;7.53;;;6.50;;
56631;SDS011;42503;39.928;-75.152;2023-09-12T09:59:58;6.40;;;5.80;;
56631;SDS011;42503;39.928;-75.152;2023-09-12T10:10:00;6.57;;;5.90;;
56631;SDS011;42503;39.928;-75.152;2023-09-12T10:20:05;6.20;;;5.60;;
56631;SDS011;42503;39.928;-75.152;2023-09-12T10:30:13;6.20;;;5.35;;
56631;SDS011;42503;39.928;-75.152;2023-09-12T10:40:15;6.57;;;5.60;;
56631;SDS011;42503;39.928;-75.152;2023-09-12T10:50:19;6.07;;;5.40;;
56631;SDS011;42503;39.928;-75.152;2023-09-12T11:00:23;10.87;;;5.33;;
56631;SDS011;42503;39.928;-75.152;2023-09-12T11:10:28;10.07;;;5.80;;
56631;SDS011;42503;39.928;-75.152;2023-09-12T11:30:56;10.10;;;6.68;;
56631;SDS011;42503;39.928;-75.152;2023-09-12T11:40:59;12.45;;;6.95;;
56631;SDS011;42503;39.928;-75.152;2023-09-12T11:51:00;12.85;;;6.28;;
56631;SDS011;42503;39.928;-75.152;2023-09-12T12:01:04;14.02;;;7.07;;
56631;SDS011;42503;39.928;-75.152;2023-09-12T12:11:06;13.23;;;6.55;;
56631;SDS011;42503;39.928;-75.152;2023-09-12T12:21:07;14.27;;;7.55;;
56631;SDS011;42503;39.928;-75.152;2023-09-12T12:31:09;11.57;;;6.60;;
56631;SDS011;42503;39.928;-75.152;2023-09-12T12:41:10;13.73;;;6.43;;
56631;SDS011;42503;39.928;-75.152;2023-09-12T13:01:20;9.25;;;6.18;;
56631;SDS011;42503;39.928;-75.152;2023-09-12T13:11:22;9.23;;;6.03;;
56631;SDS011;42503;39.928;-75.152;2023-09-12T13:21:23;9.98;;;5.75;;
56631;SDS011;42503;39.928;-75.152;2023-09-12T13:31:25;12.43;;;6.03;;
56631;SDS011;42503;39.928;-75.152;2023-09-12T13:41:26;11.00;;;6.10;;
56631;SDS011;42503;39.928;-75.152;2023-09-12T13:51:28;8.90;;;5.53;;
56631;SDS011;42503;39.928;-75.152;2023-09-12T14:01:30;8.88;;;5.40;;
56631;SDS011;42503;39.928;-75.152;2023-09-12T14:11:34;9.13;;;5.53;;
56631;SDS011;42503;39.928;-75.152;2023-09-12T14:21:36;8.55;;;5.22;;
56631;SDS011;42503;39.928;-75.152;2023-09-12T14:31:37;9.52;;;5.22;;
56631;SDS011;42503;39.928;-75.152;2023-09-12T14:41:50;6.60;;;5.15;;
56631;SDS011;42503;39.928;-75.152;2023-09-12T14:51:55;8.33;;;5.03;;
56631;SDS011;42503;39.928;-75.152;2023-09-12T15:01:59;6.97;;;5.15;;
56631;SDS011;42503;39.928;-75.152;2023-09-12T15:12:00;7.35;;;4.78;;
56631;SDS011;42503;39.928;-75.152;2023-09-12T15:22:02;5.68;;;4.45;;
56631;SDS011;42503;39.928;-75.152;2023-09-12T15:32:06;6.20;;;4.20;;
56631;SDS011;42503;39.928;-75.152;2023-09-12T15:42:07;6.53;;;4.47;;
56631;SDS011;42503;39.928;-75.152;2023-09-12T15:52:09;5.82;;;4.07;;
56631;SDS011;42503;39.928;-75.152;2023-09-12T16:02:10;5.03;;;3.90;;
56631;SDS011;42503;39.928;-75.152;2023-09-12T16:12:12;5.57;;;3.80;;
56631;SDS011;42503;39.928;-75.152;2023-09-12T16:22:13;4.57;;;3.47;;
56631;SDS011;42503;39.928;-75.152;2023-09-12T16:32:17;4.50;;;3.35;;
56631;SDS011;42503;39.928;-75.152;2023-09-12T16:42:20;5.07;;;3.90;;
56631;SDS011;42503;39.928;-75.152;2023-09-12T16:52:22;5.25;;;3.08;;
56631;SDS011;42503;39.928;-75.152;2023-09-12T17:02:23;3.70;;;3.05;;
56631;SDS011;42503;39.928;-75.152;2023-09-12T17:12:26;4.28;;;3.08;;
56631;SDS011;42503;39.928;-75.152;2023-09-12T17:22:27;4.38;;;3.10;;
56631;SDS011;42503;39.928;-75.152;2023-09-12T17:32:29;4.13;;;3.15;;
56631;SDS011;42503;39.928;-75.152;2023-09-12T17:42:30;3.45;;;2.92;;
56631;SDS011;42503;39.928;-75.152;2023-09-12T17:52:35;3.97;;;2.88;;
56631;SDS011;42503;39.928;-75.152;2023-09-12T18:02:36;3.95;;;3.35;;
56631;SDS011;42503;39.928;-75.152;2023-09-12T18:12:38;3.17;;;2.88;;
56631;SDS011;42503;39.928;-75.152;2023-09-12T18:22:40;3.85;;;2.92;;
56631;SDS011;42503;39.928;-75.152;2023-09-12T18:32:42;3.30;;;2.88;;
56631;SDS011;42503;39.928;-75.152;2023-09-12T18:42:43;3.65;;;2.85;;
56631;SDS011;42503;39.928;-75.152;2023-09-12T18:52:45;3.50;;;2.95;;
56631;SDS011;42503;39.928;-75.152;2023-09-12T19:02:46;3.97;;;2.88;;
56631;SDS011;42503;39.928;-75.152;2023-09-12T19:12:50;4.13;;;2.72;;
56631;SDS011;42503;39.928;-75.152;2023-09-12T19:22:51;3.17;;;2.80;;
56631;SDS011;42503;39.928;-75.152;2023-09-12T19:32:53;3.67;;;2.75;;
56631;SDS011;42503;39.928;-75.152;2023-09-12T19:42:57;3.28;;;2.88;;
56631;SDS011;42503;39.928;-75.152;2023-09-12T19:52:59;2.72;;;2.40;;
56631;SDS011;42503;39.928;-75.152;2023-09-12T20:03:00;4.10;;;2.50;;
56631;SDS011;42503;39.928;-75.152;2023-09-12T20:13:02;3.42;;;2.70;;
56631;SDS011;42503;39.928;-75.152;2023-09-12T20:23:03;4.55;;;2.90;;
56631;SDS011;42503;39.928;-75.152;2023-09-12T20:33:05;4.38;;;2.42;;
56631;SDS011;42503;39.928;-75.152;2023-09-12T20:43:07;3.05;;;2.53;;
56631;SDS011;42503;39.928;-75.152;2023-09-12T20:53:09;2.80;;;2.45;;
56631;SDS011;42503;39.928;-75.152;2023-09-12T21:13:19;5.68;;;2.85;;
56631;SDS011;42503;39.928;-75.152;2023-09-12T21:23:21;4.70;;;3.03;;
56631;SDS011;42503;39.928;-75.152;2023-09-12T21:33:22;6.10;;;3.03;;
56631;SDS011;42503;39.928;-75.152;2023-09-12T21:43:24;3.72;;;2.88;;
56631;SDS011;42503;39.928;-75.152;2023-09-12T21:53:28;4.00;;;2.72;;
56631;SDS011;42503;39.928;-75.152;2023-09-12T22:03:30;5.50;;;2.70;;
56631;SDS011;42503;39.928;-75.152;2023-09-12T22:13:32;3.45;;;2.65;;
56631;SDS011;42503;39.928;-75.152;2023-09-12T22:23:37;4.43;;;3.00;;
56631;SDS011;42503;39.928;-75.152;2023-09-12T22:33:39;3.78;;;2.30;;
56631;SDS011;42503;39.928;-75.152;2023-09-12T22:43:40;5.15;;;3.05;;
56631;SDS011;42503;39.928;-75.152;2023-09-12T22:53:42;5.75;;;2.80;;
56631;SDS011;42503;39.928;-75.152;2023-09-12T23:03:43;5.15;;;2.33;;
56631;SDS011;42503;39.928;-75.152;2023-09-12T23:13:51;5.15;;;2.67;;
56631;SDS011;42503;39.928;-75.152;2023-09-12T23:23:53;4.00;;;2.63;;
56631;SDS011;42503;39.928;-75.152;2023-09-12T23:33:57;8.05;;;3.25;;
56631;SDS011;42503;39.928;-75.152;2023-09-12T23:43:59;7.43;;;2.97;;
56631;SDS011;42503;39.928;-75.152;2023-09-12T23:54:00;7.32;;;2.85;;
